createdAt,value
2022-08-23T00:00:19.344Z,9.3
2022-08-23T00:01:27.942Z,6.4
2022-08-23T00:02:36.258Z,6.4
2022-08-23T00:03:44.581Z,6.4
2022-08-23T00:05:03.596Z,7.8
2022-08-23T00:06:01.487Z,7.8
2022-08-23T00:07:09.824Z,7.8
2022-08-23T00:08:18.371Z,7
2022-08-23T00:09:26.723Z,7
2022-08-23T00:10:35.047Z,7
2022-08-23T00:11:43.606Z,6.9
2022-08-23T00:12:51.960Z,6.9
2022-08-23T00:14:00.312Z,6.9
2022-08-23T00:15:08.946Z,7.1
2022-08-23T00:16:17.225Z,7.1
2022-08-23T00:17:33.188Z,7.1
2022-08-23T00:18:34.163Z,7.7
2022-08-23T00:19:42.524Z,7.7
2022-08-23T00:20:50.880Z,7.7
2022-08-23T00:21:59.459Z,6.8
2022-08-23T00:23:07.808Z,6.8
2022-08-23T00:24:16.140Z,6.8
2022-08-23T00:25:24.691Z,7.2
2022-08-23T00:26:33.036Z,7.2
2022-08-23T00:27:41.366Z,7.2
2022-08-23T00:28:49.924Z,8.6
2022-08-23T00:29:58.283Z,8.6
2022-08-23T00:31:06.635Z,8.6
2022-08-23T00:32:15.187Z,7.1
2022-08-23T00:33:23.525Z,7.1
2022-08-23T00:34:31.882Z,7.1
2022-08-23T00:35:40.420Z,7.9
2022-08-23T00:36:48.764Z,7.9
2022-08-23T00:38:33.500Z,7.9
2022-08-23T00:39:05.658Z,6.7
2022-08-23T00:40:14.048Z,6.7
2022-08-23T00:41:22.359Z,6.7
2022-08-23T00:42:30.891Z,7.6
2022-08-23T00:43:39.241Z,7.6
2022-08-23T00:44:47.569Z,7.6
2022-08-23T00:45:56.111Z,8.1
2022-08-23T00:47:04.463Z,8.1
2022-08-23T00:48:12.797Z,8.1
2022-08-23T00:49:21.354Z,6.7
2022-08-23T00:50:29.694Z,6.7
2022-08-23T00:51:43.148Z,6.7
2022-08-23T00:52:46.578Z,5.9
2022-08-23T00:53:54.934Z,5.9
2022-08-23T00:55:03.255Z,5.9
2022-08-23T00:56:11.800Z,6.2
2022-08-23T00:57:20.158Z,6.2
2022-08-23T00:58:28.500Z,6.2
2022-08-23T00:59:37.056Z,6.7
2022-08-23T01:00:45.399Z,6.7
2022-08-23T01:01:53.778Z,6.7
2022-08-23T01:03:02.286Z,6.2
2022-08-23T01:04:10.653Z,6.2
2022-08-23T01:05:19.004Z,6.2
2022-08-23T01:06:27.553Z,6.4
2022-08-23T01:07:35.895Z,6.4
2022-08-23T01:08:44.233Z,6.4
2022-08-23T01:09:52.773Z,5.7
2022-08-23T01:11:01.112Z,5.7
2022-08-23T01:12:09.445Z,5.7
2022-08-23T01:13:17.997Z,6.4
2022-08-23T01:14:26.333Z,6.4
2022-08-23T01:15:34.691Z,6.4
2022-08-23T01:16:43.236Z,6.8
2022-08-23T01:17:51.571Z,6.8
2022-08-23T01:18:59.926Z,6.8
2022-08-23T01:20:08.482Z,8.2
2022-08-23T01:21:16.811Z,8.2
2022-08-23T01:22:25.155Z,8.2
2022-08-23T01:23:33.733Z,5.2
2022-08-23T01:24:59.869Z,5.2
2022-08-23T01:25:50.429Z,5.2
2022-08-23T01:26:58.983Z,6.7
2022-08-23T01:28:07.322Z,6.7
2022-08-23T01:29:15.666Z,6.7
2022-08-23T01:30:24.198Z,5.3
2022-08-23T01:31:32.543Z,5.3
2022-08-23T01:32:40.910Z,5.3
2022-08-23T01:33:49.465Z,6
2022-08-23T01:34:57.797Z,6
2022-08-23T01:36:09.632Z,6
2022-08-23T01:37:14.666Z,5.2
2022-08-23T01:38:22.997Z,5.2
2022-08-23T01:39:31.347Z,5.2
2022-08-23T01:40:39.909Z,4.9
2022-08-23T01:41:48.263Z,4.9
2022-08-23T01:42:56.614Z,4.9
2022-08-23T01:44:05.159Z,5.3
2022-08-23T01:45:13.484Z,5.3
2022-08-23T01:46:21.820Z,5.3
2022-08-23T01:47:30.377Z,6.5
2022-08-23T01:48:38.719Z,6.5
2022-08-23T01:49:47.057Z,6.5
2022-08-23T01:50:55.614Z,7.7
2022-08-23T01:52:03.964Z,7.7
2022-08-23T01:53:12.308Z,7.7
2022-08-23T01:54:20.881Z,5.6
2022-08-23T01:55:29.219Z,5.6
2022-08-23T01:56:38.472Z,5.6
2022-08-23T01:57:46.948Z,6.4
2022-08-23T01:58:54.446Z,6.4
2022-08-23T02:00:02.785Z,6.4
2022-08-23T02:01:11.498Z,5.9
2022-08-23T02:02:19.691Z,5.9
2022-08-23T02:03:28.062Z,5.9
2022-08-23T02:04:36.632Z,5.7
2022-08-23T02:05:45.000Z,5.7
2022-08-23T02:06:53.333Z,5.7
2022-08-23T02:08:02.014Z,6.7
2022-08-23T02:09:15.999Z,6.7
2022-08-23T02:10:18.551Z,6.7
2022-08-23T02:11:27.098Z,5.9
2022-08-23T02:12:35.456Z,5.9
2022-08-23T02:13:43.794Z,5.9
2022-08-23T02:14:52.347Z,6
2022-08-23T02:16:00.686Z,6
2022-08-23T02:17:09.027Z,6
2022-08-23T02:18:17.587Z,6.5
2022-08-23T02:19:25.943Z,6.5
2022-08-23T02:20:34.304Z,6.5
2022-08-23T02:21:42.852Z,5.8
2022-08-23T02:22:51.194Z,5.8
2022-08-23T02:23:59.541Z,5.8
2022-08-23T02:25:08.086Z,6
2022-08-23T02:26:16.431Z,6
2022-08-23T02:27:24.791Z,6
2022-08-23T02:28:33.351Z,6.6
2022-08-23T02:29:41.698Z,6.6
2022-08-23T02:30:50.042Z,6.6
2022-08-23T02:31:58.575Z,7.2
2022-08-23T02:33:06.909Z,7.2
2022-08-23T02:35:41.806Z,4.9
2022-08-23T02:36:50.217Z,4.9
2022-08-23T02:37:58.731Z,4.9
2022-08-23T02:39:07.237Z,6
2022-08-23T02:40:15.720Z,6
2022-08-23T02:41:24.055Z,6
2022-08-23T02:42:32.659Z,5.6
2022-08-23T02:43:41.235Z,5.6
2022-08-23T02:44:49.523Z,5.6
2022-08-23T02:45:58.128Z,6
2022-08-23T02:47:06.552Z,6
2022-08-23T02:48:14.972Z,6
2022-08-23T02:49:23.611Z,6.5
2022-08-23T02:50:32.014Z,6.5
2022-08-23T02:51:40.417Z,6.5
2022-08-23T02:52:49.034Z,4.9
2022-08-23T02:53:57.452Z,4.9
2022-08-23T02:55:05.855Z,4.9
2022-08-23T02:56:17.122Z,6.3
2022-08-23T02:57:22.898Z,6.3
2022-08-23T02:58:31.322Z,6.3
2022-08-23T02:59:39.941Z,6.1
2022-08-23T03:00:48.345Z,6.1
2022-08-23T03:01:56.810Z,6.1
2022-08-23T03:03:05.392Z,7.7
2022-08-23T03:04:13.818Z,7.7
2022-08-23T03:05:22.244Z,7.7
2022-08-23T03:06:30.848Z,8.1
2022-08-23T03:07:39.259Z,8.1
2022-08-23T03:08:47.675Z,8.1
2022-08-23T03:09:56.286Z,7.1
2022-08-23T03:11:05.666Z,7.1
2022-08-23T03:12:13.101Z,7.1
2022-08-23T03:13:21.746Z,7
2022-08-23T03:14:30.150Z,7
2022-08-23T03:15:38.543Z,7
2022-08-23T03:16:47.161Z,6.9
2022-08-23T03:17:55.634Z,6.9
2022-08-23T03:19:04.013Z,6.9
2022-08-23T03:20:12.645Z,5.8
2022-08-23T03:21:21.039Z,5.8
2022-08-23T03:22:29.464Z,5.8
2022-08-23T03:23:38.078Z,8.5
2022-08-23T03:24:46.467Z,8.5
2022-08-23T03:25:54.867Z,8.5
2022-08-23T03:27:03.476Z,8.5
2022-08-23T03:28:11.890Z,8.5
2022-08-23T03:29:20.294Z,8.5
2022-08-23T03:30:28.898Z,6.4
2022-08-23T03:31:37.267Z,6.4
2022-08-23T03:32:48.110Z,6.4
2022-08-23T03:33:54.120Z,7.4
2022-08-23T03:35:02.436Z,7.4
2022-08-23T03:36:10.766Z,7.4
2022-08-23T03:37:19.305Z,6.1
2022-08-23T03:38:27.633Z,6.1
2022-08-23T03:39:35.971Z,6.1
2022-08-23T03:40:44.507Z,6.9
2022-08-23T03:41:52.843Z,6.9
2022-08-23T03:43:01.202Z,6.9
2022-08-23T03:44:09.750Z,5.5
2022-08-23T03:45:18.084Z,5.5
2022-08-23T03:46:27.084Z,5.5
2022-08-23T03:47:34.956Z,5.9
2022-08-23T03:48:43.303Z,5.9
2022-08-23T03:49:51.640Z,5.9
2022-08-23T03:51:00.181Z,7.3
2022-08-23T03:52:08.528Z,7.3
2022-08-23T03:53:16.855Z,7.3
2022-08-23T03:54:25.401Z,7
2022-08-23T03:55:33.731Z,7
2022-08-23T03:56:42.052Z,7
2022-08-23T03:57:50.616Z,5.9
2022-08-23T03:58:58.965Z,5.9
2022-08-23T04:00:07.588Z,5.9
2022-08-23T04:01:16.145Z,7.2
2022-08-23T04:02:24.464Z,7.2
2022-08-23T04:03:32.803Z,7.2
2022-08-23T04:04:41.338Z,6.3
2022-08-23T04:05:49.679Z,6.3
2022-08-23T04:06:58.004Z,6.3
2022-08-23T04:08:06.559Z,6.8
2022-08-23T04:09:14.892Z,6.8
2022-08-23T04:10:23.219Z,6.8
2022-08-23T04:11:31.737Z,5.7
2022-08-23T04:12:40.088Z,5.7
2022-08-23T04:13:48.407Z,5.7
2022-08-23T04:14:56.936Z,6.4
2022-08-23T04:16:05.255Z,6.4
2022-08-23T04:17:13.598Z,6.4
2022-08-23T04:18:22.125Z,5.3
2022-08-23T04:19:30.435Z,5.3
2022-08-23T04:20:38.769Z,5.3
2022-08-23T04:21:47.316Z,7.2
2022-08-23T04:22:55.640Z,7.2
2022-08-23T04:24:03.980Z,7.2
2022-08-23T04:25:34.095Z,5.4
2022-08-23T04:26:20.869Z,5.4
2022-08-23T04:27:29.218Z,5.4
2022-08-23T04:28:37.741Z,6.2
2022-08-23T04:29:46.063Z,6.2
2022-08-23T04:30:54.379Z,6.2
2022-08-23T04:32:02.914Z,6.4
2022-08-23T04:33:13.284Z,6.4
2022-08-23T04:34:20.194Z,6.4
2022-08-23T04:35:28.085Z,8.1
2022-08-23T04:36:36.422Z,8.1
2022-08-23T04:37:44.759Z,8.1
2022-08-23T04:38:53.301Z,6.1
2022-08-23T04:40:01.704Z,6.1
2022-08-23T04:41:11.161Z,6.1
2022-08-23T04:42:18.486Z,6.9
2022-08-23T04:43:26.798Z,6.9
2022-08-23T04:44:35.130Z,6.9
2022-08-23T04:45:43.654Z,6.6
2022-08-23T04:46:51.986Z,6.6
2022-08-23T04:48:00.496Z,6.6
2022-08-23T04:49:08.844Z,6.7
2022-08-23T04:50:17.169Z,6.7
2022-08-23T04:51:25.491Z,6.7
2022-08-23T04:52:34.040Z,6.9
2022-08-23T04:53:42.372Z,6.9
2022-08-23T04:54:50.726Z,6.9
2022-08-23T04:55:59.256Z,8.9
2022-08-23T04:57:07.577Z,8.9
2022-08-23T04:58:15.902Z,8.9
2022-08-23T04:59:24.430Z,7.9
2022-08-23T05:00:32.778Z,7.9
2022-08-23T05:01:41.063Z,7.9
2022-08-23T05:02:49.591Z,6.7
2022-08-23T05:03:57.916Z,6.7
2022-08-23T05:05:06.238Z,6.7
2022-08-23T05:06:14.779Z,6.4
2022-08-23T05:07:30.843Z,6.4
2022-08-23T05:08:31.419Z,6.4
2022-08-23T05:09:39.958Z,7.1
2022-08-23T05:10:48.303Z,7.1
2022-08-23T05:11:56.623Z,7.1
2022-08-23T05:13:05.150Z,8.4
2022-08-23T05:14:13.453Z,8.4
2022-08-23T05:15:21.783Z,8.4
2022-08-23T05:16:30.324Z,7.1
2022-08-23T05:17:38.639Z,7.1
2022-08-23T05:18:46.967Z,7.1
2022-08-23T05:19:55.502Z,7.7
2022-08-23T05:21:03.815Z,7.7
2022-08-23T05:22:12.211Z,7.7
2022-08-23T05:23:22.285Z,7.6
2022-08-23T05:24:29.596Z,7.6
2022-08-23T05:25:37.920Z,7.6
2022-08-23T05:26:46.440Z,7.1
2022-08-23T05:27:54.756Z,7.1
2022-08-23T05:29:03.071Z,7.1
2022-08-23T05:30:15.379Z,9
2022-08-23T05:31:19.928Z,9
2022-08-23T05:32:31.590Z,9
2022-08-23T05:33:36.794Z,8.6
2022-08-23T05:34:45.114Z,8.6
2022-08-23T05:35:53.445Z,8.6
2022-08-23T05:37:01.989Z,8.7
2022-08-23T05:38:10.305Z,8.7
2022-08-23T05:39:21.172Z,8.7
2022-08-23T05:40:27.145Z,6.7
2022-08-23T05:41:38.100Z,6.7
2022-08-23T05:42:43.801Z,6.7
2022-08-23T05:43:52.338Z,10.9
2022-08-23T05:45:00.663Z,10.9
2022-08-23T05:46:09.455Z,10.9
2022-08-23T05:47:17.515Z,8.7
2022-08-23T05:48:25.847Z,8.7
2022-08-23T05:49:34.170Z,8.7
2022-08-23T05:50:42.707Z,7.7
2022-08-23T05:51:51.466Z,7.7
2022-08-23T05:52:59.349Z,7.7
2022-08-23T05:54:07.901Z,9.3
2022-08-23T05:55:16.207Z,9.3
2022-08-23T05:56:24.531Z,9.3
2022-08-23T05:57:33.086Z,6.9
2022-08-23T05:58:41.416Z,6.9
2022-08-23T05:59:49.755Z,6.9
2022-08-23T06:00:58.306Z,7.5
2022-08-23T06:02:06.598Z,7.5
2022-08-23T06:03:14.921Z,7.5
2022-08-23T06:04:23.479Z,6.8
2022-08-23T06:05:31.822Z,6.8
2022-08-23T06:06:40.140Z,6.8
2022-08-23T06:07:48.684Z,8.8
2022-08-23T06:08:57.020Z,8.8
2022-08-23T06:10:05.346Z,8.8
2022-08-23T06:11:13.878Z,10
2022-08-23T06:12:22.183Z,10
2022-08-23T06:13:30.497Z,10
2022-08-23T06:14:39.037Z,8.4
2022-08-23T06:15:47.351Z,8.4
2022-08-23T06:16:56.329Z,8.4
2022-08-23T06:18:04.198Z,9
2022-08-23T06:19:12.531Z,9
2022-08-23T06:20:20.899Z,9
2022-08-23T06:21:29.388Z,9.3
2022-08-23T06:22:37.700Z,9.3
2022-08-23T06:23:46.026Z,9.3
2022-08-23T06:24:54.591Z,10.1
2022-08-23T06:26:02.939Z,10.1
2022-08-23T06:27:11.255Z,10.1
2022-08-23T06:28:19.775Z,10.4
2022-08-23T06:29:28.128Z,10.4
2022-08-23T06:30:39.608Z,10.4
2022-08-23T06:31:44.974Z,8.9
2022-08-23T06:32:53.333Z,8.9
2022-08-23T06:34:01.639Z,8.9
2022-08-23T06:35:29.991Z,9.3
2022-08-23T06:36:18.466Z,9.3
2022-08-23T06:37:26.778Z,9.3
2022-08-23T06:38:35.301Z,11.1
2022-08-23T06:39:43.697Z,11.1
2022-08-23T06:40:51.952Z,11.1
2022-08-23T06:42:00.475Z,9.1
2022-08-23T06:43:08.782Z,9.1
2022-08-23T06:44:17.138Z,9.1
2022-08-23T06:45:32.388Z,10
2022-08-23T06:46:34.111Z,10
2022-08-23T06:47:42.342Z,10
2022-08-23T06:48:50.860Z,13.5
2022-08-23T06:49:59.231Z,13.5
2022-08-23T06:51:07.502Z,13.5
2022-08-23T06:52:16.034Z,11.9
2022-08-23T06:53:24.383Z,11.9
2022-08-23T06:54:32.728Z,11.9
2022-08-23T06:55:41.271Z,8.9
2022-08-23T06:56:49.612Z,8.9
2022-08-23T06:57:57.938Z,8.9
2022-08-23T06:59:06.473Z,12
2022-08-23T07:00:17.841Z,12
2022-08-23T07:01:43.950Z,12
2022-08-23T07:02:31.693Z,11.4
2022-08-23T07:03:39.989Z,11.4
2022-08-23T07:04:48.330Z,11.4
2022-08-23T07:05:56.857Z,9.4
2022-08-23T07:07:08.256Z,9.4
2022-08-23T07:08:13.501Z,9.4
2022-08-23T07:09:22.068Z,10.9
2022-08-23T07:10:31.378Z,10.9
2022-08-23T07:11:39.702Z,10.9
2022-08-23T07:12:48.227Z,12.5
2022-08-23T07:13:56.555Z,12.5
2022-08-23T07:15:04.874Z,12.5
2022-08-23T07:16:13.454Z,8.2
2022-08-23T07:17:21.734Z,8.2
2022-08-23T07:18:30.056Z,8.2
2022-08-23T07:19:38.625Z,8.3
2022-08-23T07:20:46.988Z,8.3
2022-08-23T07:21:55.333Z,8.3
2022-08-23T07:23:03.871Z,10.5
2022-08-23T07:24:12.199Z,10.5
2022-08-23T07:25:20.509Z,10.5
2022-08-23T07:26:29.044Z,11.8
2022-08-23T07:27:37.368Z,11.8
2022-08-23T07:28:45.705Z,11.8
2022-08-23T07:29:54.247Z,8
2022-08-23T07:31:02.592Z,8
2022-08-23T07:32:10.979Z,8
2022-08-23T07:33:19.465Z,5.6
2022-08-23T07:34:27.827Z,5.6
2022-08-23T07:35:40.169Z,5.6
2022-08-23T07:36:44.673Z,6
2022-08-23T07:37:53.002Z,6
2022-08-23T07:39:01.349Z,6
2022-08-23T07:40:09.908Z,6.4
2022-08-23T07:41:18.191Z,6.4
2022-08-23T07:42:26.515Z,6.4
2022-08-23T07:43:35.070Z,4.8
2022-08-23T07:44:43.406Z,4.8
2022-08-23T07:45:51.729Z,4.8
2022-08-23T07:47:00.766Z,4.4
2022-08-23T07:48:08.613Z,4.4
2022-08-23T07:49:16.944Z,4.4
2022-08-23T07:50:25.482Z,4.2
2022-08-23T07:51:33.802Z,4.2
2022-08-23T07:52:42.151Z,4.2
2022-08-23T07:53:50.699Z,4.5
2022-08-23T07:54:58.999Z,4.5
2022-08-23T07:56:07.331Z,4.5
2022-08-23T07:57:15.867Z,4.2
2022-08-23T07:58:24.205Z,4.2
2022-08-23T07:59:34.601Z,4.2
2022-08-23T08:00:41.042Z,7.2
2022-08-23T08:01:49.385Z,7.2
2022-08-23T08:02:57.739Z,7.2
2022-08-23T08:04:06.262Z,4.8
2022-08-23T08:05:17.317Z,4.8
2022-08-23T08:06:22.889Z,4.8
2022-08-23T08:07:31.433Z,5.3
2022-08-23T08:08:39.758Z,5.3
2022-08-23T08:09:48.093Z,5.3
2022-08-23T08:10:56.644Z,7.5
2022-08-23T08:12:04.970Z,7.5
2022-08-23T08:13:13.314Z,7.5
2022-08-23T08:14:21.849Z,4.4
2022-08-23T08:15:30.189Z,4.4
2022-08-23T08:16:38.524Z,4.4
2022-08-23T08:17:47.055Z,4.7
2022-08-23T08:18:55.386Z,4.7
2022-08-23T08:20:03.714Z,4.7
2022-08-23T08:21:12.258Z,4.4
2022-08-23T08:22:20.603Z,4.4
2022-08-23T08:23:28.935Z,4.4
2022-08-23T08:24:37.480Z,4.8
2022-08-23T08:25:45.818Z,4.8
2022-08-23T08:26:54.136Z,4.8
2022-08-23T08:28:02.751Z,4.5
2022-08-23T08:29:11.018Z,4.5
2022-08-23T08:30:19.334Z,4.5
2022-08-23T08:31:27.938Z,3.9
2022-08-23T08:32:36.221Z,3.9
2022-08-23T08:33:44.556Z,3.9
2022-08-23T08:34:53.092Z,4.5
2022-08-23T08:36:02.553Z,4.5
2022-08-23T08:37:09.751Z,4.5
2022-08-23T08:38:18.303Z,5.1
2022-08-23T08:39:26.615Z,5.1
2022-08-23T08:40:35.878Z,5.1
2022-08-23T08:41:43.497Z,4.5
2022-08-23T08:42:51.843Z,4.5
2022-08-23T08:44:00.172Z,4.5
2022-08-23T08:45:08.692Z,5.8
2022-08-23T08:46:17.096Z,5.8
2022-08-23T08:47:25.337Z,5.8
2022-08-23T08:48:33.870Z,3.9
2022-08-23T08:49:42.199Z,3.9
2022-08-23T08:50:50.518Z,3.9
2022-08-23T08:51:59.043Z,11.1
2022-08-23T08:53:07.427Z,11.1
2022-08-23T08:54:15.716Z,11.1
2022-08-23T08:55:24.242Z,5.2
2022-08-23T08:56:32.932Z,5.2
2022-08-23T08:57:40.919Z,5.2
2022-08-23T08:58:49.481Z,5.1
2022-08-23T08:59:57.818Z,5.1
2022-08-23T09:01:06.140Z,5.1
2022-08-23T09:02:16.907Z,6.3
2022-08-23T09:03:23.112Z,6.3
2022-08-23T09:04:31.354Z,6.3
2022-08-23T09:05:39.884Z,5.9
2022-08-23T09:06:48.237Z,5.9
2022-08-23T09:07:56.566Z,5.9
2022-08-23T09:09:05.087Z,7.5
2022-08-23T09:10:13.397Z,7.5
2022-08-23T09:11:21.748Z,7.5
2022-08-23T09:12:30.292Z,5.3
2022-08-23T09:13:39.652Z,5.3
2022-08-23T09:14:46.939Z,5.3
2022-08-23T09:15:55.518Z,7.3
2022-08-23T09:17:05.487Z,7.3
2022-08-23T09:18:12.159Z,7.3
2022-08-23T09:19:20.696Z,6.4
2022-08-23T09:20:32.784Z,6.4
2022-08-23T09:21:37.371Z,6.4
2022-08-23T09:22:45.902Z,8.3
2022-08-23T09:23:57.086Z,8.3
2022-08-23T09:25:02.581Z,8.3
2022-08-23T09:26:11.106Z,4.8
2022-08-23T09:27:19.436Z,4.8
2022-08-23T09:28:27.778Z,4.8
2022-08-23T09:29:36.314Z,5.8
2022-08-23T09:30:44.626Z,5.8
2022-08-23T09:31:53.081Z,5.8
2022-08-23T09:33:01.543Z,5.6
2022-08-23T09:34:09.870Z,5.6
2022-08-23T09:35:18.185Z,5.6
2022-08-23T09:36:26.714Z,4.2
2022-08-23T09:37:35.059Z,4.2
2022-08-23T09:38:43.487Z,4.2
2022-08-23T09:39:51.968Z,5.9
2022-08-23T09:41:00.249Z,5.9
2022-08-23T09:42:08.585Z,5.9
2022-08-23T09:43:17.161Z,4.9
2022-08-23T09:44:25.480Z,4.9
2022-08-23T09:45:35.538Z,4.9
2022-08-23T09:46:42.365Z,2.9
2022-08-23T09:47:50.707Z,2.9
2022-08-23T09:48:59.087Z,2.9
2022-08-23T09:50:07.598Z,3.3
2022-08-23T09:51:15.921Z,3.3
2022-08-23T09:52:24.258Z,3.3
2022-08-23T09:53:32.795Z,2.3
2022-08-23T09:54:44.021Z,2.3
2022-08-23T09:55:49.446Z,2.3
2022-08-23T09:56:57.981Z,3.5
2022-08-23T09:58:06.314Z,3.5
2022-08-23T09:59:14.687Z,3.5
2022-08-23T10:00:23.339Z,5.9
2022-08-23T10:01:34.354Z,5.9
2022-08-23T10:02:39.925Z,5.9
2022-08-23T10:03:48.482Z,6.1
2022-08-23T10:04:56.929Z,6.1
2022-08-23T10:06:05.124Z,6.1
2022-08-23T10:07:13.668Z,5.7
2022-08-23T10:08:22.016Z,5.7
2022-08-23T10:09:30.352Z,5.7
2022-08-23T10:10:38.900Z,4.2
2022-08-23T10:11:47.237Z,4.2
2022-08-23T10:12:55.965Z,4.2
2022-08-23T10:14:04.133Z,10.7
2022-08-23T10:15:12.475Z,10.7
2022-08-23T10:16:20.844Z,10.7
2022-08-23T10:17:29.354Z,3
2022-08-23T10:18:37.687Z,3
2022-08-23T10:19:47.721Z,3
2022-08-23T10:20:54.589Z,2.1
2022-08-23T10:22:02.924Z,2.1
2022-08-23T10:23:11.272Z,2.1
2022-08-23T10:24:19.812Z,3.5
2022-08-23T10:25:28.158Z,3.5
2022-08-23T10:26:36.502Z,3.5
2022-08-23T10:27:45.065Z,2
2022-08-23T10:28:53.401Z,2
2022-08-23T10:30:01.744Z,2
2022-08-23T10:31:10.348Z,2.5
2022-08-23T10:32:18.646Z,2.5
2022-08-23T10:33:26.989Z,2.5
2022-08-23T10:34:35.545Z,2.6
2022-08-23T10:35:43.896Z,2.6
2022-08-23T10:36:52.242Z,2.6
2022-08-23T10:38:00.910Z,2.1
2022-08-23T10:39:09.153Z,2.1
2022-08-23T10:40:17.588Z,2.1
2022-08-23T10:41:26.025Z,2.6
2022-08-23T10:42:34.362Z,2.6
2022-08-23T10:43:42.706Z,2.6
2022-08-23T10:44:51.267Z,2.8
2022-08-23T10:46:00.492Z,2.8
2022-08-23T10:47:07.923Z,2.8
2022-08-23T10:48:16.475Z,3.4
2022-08-23T10:49:24.824Z,3.4
2022-08-23T10:50:33.181Z,3.4
2022-08-23T10:51:42.126Z,2.6
2022-08-23T10:52:50.092Z,2.6
2022-08-23T10:53:58.449Z,2.6
2022-08-23T10:55:07.009Z,3.4
2022-08-23T10:56:15.347Z,3.4
2022-08-23T10:57:23.679Z,3.4
2022-08-23T10:58:32.277Z,3
2022-08-23T10:59:40.630Z,3
2022-08-23T11:00:49.024Z,3
2022-08-23T11:01:57.651Z,2.7
2022-08-23T11:03:05.989Z,2.7
2022-08-23T11:04:15.303Z,2.7
2022-08-23T11:05:23.855Z,2.6
2022-08-23T11:06:32.972Z,2.6
2022-08-23T11:07:41.309Z,2.6
2022-08-23T11:08:49.908Z,3.4
2022-08-23T11:09:58.259Z,3.4
2022-08-23T11:11:06.594Z,3.4
2022-08-23T11:12:15.150Z,1.9
2022-08-23T11:13:23.480Z,1.9
2022-08-23T11:14:31.828Z,1.9
2022-08-23T11:15:41.477Z,2.6
2022-08-23T11:16:48.735Z,2.6
2022-08-23T11:17:57.094Z,2.6
2022-08-23T11:19:05.674Z,4.7
2022-08-23T11:20:14.023Z,4.7
2022-08-23T11:21:22.363Z,4.7
2022-08-23T11:22:30.909Z,3.6
2022-08-23T11:23:39.261Z,3.6
2022-08-23T11:24:47.609Z,3.6
2022-08-23T11:25:56.371Z,2.5
2022-08-23T11:27:06.526Z,2.5
2022-08-23T11:28:17.536Z,2.5
2022-08-23T11:29:27.055Z,5.1
2022-08-23T11:30:35.429Z,5.1
2022-08-23T11:31:43.722Z,5.1
2022-08-23T11:32:52.266Z,3.8
2022-08-23T11:34:00.608Z,3.8
2022-08-23T11:35:08.982Z,3.8
2022-08-23T11:36:17.483Z,3.1
2022-08-23T11:37:25.840Z,3.1
2022-08-23T11:38:34.179Z,3.1
2022-08-23T11:39:42.749Z,3.6
2022-08-23T11:40:51.087Z,3.6
2022-08-23T11:41:59.417Z,3.6
2022-08-23T11:43:07.993Z,3.3
2022-08-23T11:44:16.311Z,3.3
2022-08-23T11:45:24.656Z,3.3
2022-08-23T11:46:33.284Z,3.2
2022-08-23T11:47:41.547Z,3.2
2022-08-23T11:48:49.908Z,3.2
2022-08-23T11:49:58.445Z,4
2022-08-23T11:51:06.811Z,4
2022-08-23T11:52:15.145Z,4
2022-08-23T11:53:23.689Z,2.6
2022-08-23T11:54:32.031Z,2.6
2022-08-23T11:55:40.375Z,2.6
2022-08-23T11:56:48.928Z,2.6
2022-08-23T11:57:57.256Z,2.6
2022-08-23T11:59:08.559Z,2.6
2022-08-23T12:00:14.167Z,2.9
2022-08-23T12:01:22.490Z,2.9
2022-08-23T12:02:30.904Z,2.9
2022-08-23T12:03:39.472Z,2.6
2022-08-23T12:04:47.721Z,2.6
2022-08-23T12:05:56.063Z,2.6
2022-08-23T12:07:04.613Z,2.8
2022-08-23T12:08:12.940Z,2.8
2022-08-23T12:09:21.301Z,2.8
2022-08-23T12:10:29.847Z,2.7
2022-08-23T12:11:38.693Z,2.7
2022-08-23T12:12:47.471Z,2.7
2022-08-23T12:13:55.609Z,3.4
2022-08-23T12:15:03.942Z,3.4
2022-08-23T12:16:16.468Z,3.4
2022-08-23T12:17:20.827Z,2.5
2022-08-23T12:18:29.160Z,2.5
2022-08-23T12:19:40.250Z,2.5
2022-08-23T12:20:47.083Z,2
2022-08-23T12:21:54.420Z,2
2022-08-23T12:23:02.763Z,2
2022-08-23T12:24:11.353Z,3.5
2022-08-23T12:25:19.713Z,3.5
2022-08-23T12:26:28.561Z,3.5
2022-08-23T12:27:36.779Z,2.3
2022-08-23T12:28:44.938Z,2.3
2022-08-23T12:29:53.284Z,2.3
2022-08-23T12:31:07.698Z,2.7
2022-08-23T12:32:10.163Z,2.7
2022-08-23T12:33:18.507Z,2.7
2022-08-23T12:34:27.059Z,4.4
2022-08-23T12:35:35.407Z,4.4
2022-08-23T12:36:43.742Z,4.4
2022-08-23T12:37:52.293Z,2.2
2022-08-23T12:39:00.804Z,2.2
2022-08-23T12:40:09.201Z,2.2
2022-08-23T12:41:17.676Z,2.5
2022-08-23T12:42:26.004Z,2.5
2022-08-23T12:43:34.346Z,2.5
2022-08-23T12:44:42.909Z,3
2022-08-23T12:45:51.304Z,3
2022-08-23T12:46:59.584Z,3
2022-08-23T12:48:08.138Z,3
2022-08-23T12:49:16.548Z,3
2022-08-23T12:50:26.099Z,3
2022-08-23T12:51:33.410Z,3
2022-08-23T12:52:41.744Z,3
2022-08-23T12:53:50.101Z,3
2022-08-23T12:54:58.651Z,3.5
2022-08-23T12:56:06.981Z,3.5
2022-08-23T12:57:15.317Z,3.5
2022-08-23T12:58:23.867Z,2.6
2022-08-23T12:59:32.204Z,2.6
2022-08-23T13:00:40.531Z,2.6
2022-08-23T13:01:49.198Z,2.3
2022-08-23T13:02:57.553Z,2.3
2022-08-23T13:04:05.771Z,2.3
2022-08-23T13:05:14.342Z,2.4
2022-08-23T13:06:22.680Z,2.4
2022-08-23T13:07:31.044Z,2.4
2022-08-23T13:08:40.171Z,2.9
2022-08-23T13:09:53.420Z,2.9
2022-08-23T13:10:56.853Z,2.9
2022-08-23T13:12:05.394Z,2
2022-08-23T13:13:13.729Z,2
2022-08-23T13:14:22.081Z,2
2022-08-23T13:15:30.667Z,1.8
2022-08-23T13:16:38.971Z,1.8
2022-08-23T13:17:47.309Z,1.8
2022-08-23T13:18:55.880Z,3.4
2022-08-23T13:20:04.251Z,3.4
2022-08-23T13:21:12.554Z,3.4
2022-08-23T13:22:21.095Z,2.5
2022-08-23T13:23:29.431Z,2.5
2022-08-23T13:24:39.101Z,2.5
2022-08-23T13:25:46.330Z,5.1
2022-08-23T13:26:54.674Z,5.1
2022-08-23T13:28:02.997Z,5.1
2022-08-23T13:29:11.564Z,2.6
2022-08-23T13:30:19.906Z,2.6
2022-08-23T13:31:28.361Z,2.6
2022-08-23T13:32:36.794Z,5
2022-08-23T13:33:45.138Z,5
2022-08-23T13:34:53.483Z,5
2022-08-23T13:36:02.025Z,2.7
2022-08-23T13:37:10.351Z,2.7
2022-08-23T13:38:21.509Z,2.7
2022-08-23T13:39:27.257Z,3.2
2022-08-23T13:40:35.586Z,3.2
2022-08-23T13:41:43.916Z,3.2
2022-08-23T13:42:52.459Z,5
2022-08-23T13:44:00.822Z,5
2022-08-23T13:45:09.186Z,5
2022-08-23T13:46:17.758Z,2.5
2022-08-23T13:47:26.075Z,2.5
2022-08-23T13:48:34.403Z,2.5
2022-08-23T13:49:42.953Z,3.1
2022-08-23T13:50:51.298Z,3.1
2022-08-23T13:52:11.867Z,3.1
2022-08-23T13:53:15.878Z,2.9
2022-08-23T13:54:16.546Z,2.9
2022-08-23T13:55:24.885Z,2.9
2022-08-23T13:56:33.430Z,3.4
2022-08-23T13:57:41.763Z,3.4
2022-08-23T13:58:50.118Z,3.4
2022-08-23T13:59:58.679Z,2.7
2022-08-23T14:01:07.019Z,2.7
2022-08-23T14:02:15.349Z,2.7
2022-08-23T14:03:23.910Z,3.2
2022-08-23T14:04:32.242Z,3.2
2022-08-23T14:05:40.567Z,3.2
2022-08-23T14:06:49.109Z,4.4
2022-08-23T14:07:57.476Z,4.4
2022-08-23T14:09:05.804Z,4.4
2022-08-23T14:10:14.348Z,4
2022-08-23T14:11:22.717Z,4
2022-08-23T14:12:31.054Z,4
2022-08-23T14:13:39.621Z,4.7
2022-08-23T14:14:47.957Z,4.7
2022-08-23T14:15:58.668Z,4.7
2022-08-23T14:17:04.865Z,3
2022-08-23T14:18:13.173Z,3
2022-08-23T14:20:43.226Z,4.3
2022-08-23T14:21:38.420Z,4.3
2022-08-23T14:22:46.753Z,4.3
2022-08-23T14:23:55.312Z,2.6
2022-08-23T14:25:03.661Z,2.6
2022-08-23T14:26:11.994Z,2.6
2022-08-23T14:27:20.535Z,4.2
2022-08-23T14:28:29.456Z,4.2
2022-08-23T14:29:37.224Z,4.2
2022-08-23T15:04:17.643Z,0
2022-08-23T15:05:25.992Z,0
2022-08-23T15:06:34.483Z,0
2022-08-23T15:07:43.030Z,6.3
2022-08-23T15:08:51.367Z,6.3
2022-08-23T15:09:59.697Z,6.3
2022-08-23T15:13:29.993Z,3.8
2022-08-23T15:14:33.489Z,3.7
2022-08-23T15:15:41.835Z,3.7
2022-08-23T15:16:50.343Z,3.7
2022-08-23T15:17:58.821Z,5
2022-08-23T15:19:07.069Z,5
2022-08-23T15:20:15.405Z,5
2022-08-23T15:21:23.950Z,3.2
2022-08-23T15:22:32.282Z,3.2
2022-08-23T15:23:40.615Z,3.2
2022-08-23T15:24:49.156Z,6.5
2022-08-23T15:25:57.504Z,6.5
2022-08-23T15:27:05.841Z,6.5
2022-08-23T15:28:14.398Z,4.4
2022-08-23T15:29:22.740Z,4.4
2022-08-23T15:30:33.328Z,4.4
2022-08-23T15:31:39.650Z,5.3
2022-08-23T15:32:52.454Z,5.3
2022-08-23T15:33:56.330Z,5.3
2022-08-23T15:35:04.875Z,4.4
2022-08-23T15:36:13.210Z,4.4
2022-08-23T15:37:21.554Z,4.4
2022-08-23T15:38:30.117Z,5.3
2022-08-23T15:39:38.458Z,5.3
2022-08-23T15:40:46.783Z,5.3
2022-08-23T15:41:55.332Z,3.1
2022-08-23T15:43:03.765Z,3.1
2022-08-23T15:44:12.031Z,3.1
2022-08-23T15:45:20.580Z,3.4
2022-08-23T15:46:28.965Z,3.4
2022-08-23T15:47:37.276Z,3.4
2022-08-23T15:48:45.824Z,5.8
2022-08-23T15:49:54.174Z,5.8
2022-08-23T15:51:02.514Z,5.8
2022-08-23T15:52:11.082Z,3.9
2022-08-23T15:53:19.426Z,3.9
2022-08-23T15:54:27.755Z,3.9
2022-08-23T15:55:36.782Z,4.3
2022-08-23T15:56:46.436Z,4.3
2022-08-23T15:57:54.808Z,4.3
2022-08-23T15:59:03.378Z,4.4
2022-08-23T16:00:11.762Z,4.4
2022-08-23T16:01:23.977Z,4.4
2022-08-23T16:02:28.741Z,4.3
2022-08-23T16:03:37.099Z,4.3
2022-08-23T16:04:45.385Z,4.3
2022-08-23T16:05:53.965Z,3.7
2022-08-23T16:07:02.326Z,3.7
2022-08-23T16:08:10.731Z,3.7
2022-08-23T16:09:19.286Z,3.8
2022-08-23T16:10:28.079Z,3.8
2022-08-23T16:11:36.022Z,3.8
2022-08-23T16:12:44.609Z,3.5
2022-08-23T16:13:53.606Z,3.5
2022-08-23T16:15:01.337Z,3.5
2022-08-23T16:16:09.925Z,4.4
2022-08-23T16:17:18.239Z,4.4
2022-08-23T16:18:26.573Z,4.4
2022-08-23T16:19:35.115Z,5.3
2022-08-23T16:20:43.454Z,5.3
2022-08-23T16:21:51.803Z,5.3
2022-08-23T16:23:00.522Z,3.7
2022-08-23T16:24:08.692Z,3.7
2022-08-23T16:25:17.038Z,3.7